sensor_id;sensor_type;location;lat;lon;timestamp;temperature;humidity
58339;DHT22;68636;52.704;6.536;2023-09-19T18:04:29;17.50;99.90
58339;DHT22;68636;52.704;6.536;2023-09-19T18:06:54;17.70;99.90
58339;DHT22;68636;52.704;6.536;2023-09-19T18:09:20;17.30;99.90
58339;DHT22;68636;52.704;6.536;2023-09-19T18:11:47;17.40;99.90
58339;DHT22;68636;52.704;6.536;2023-09-19T18:14:14;17.40;99.90
58339;DHT22;68636;52.704;6.536;2023-09-19T18:16:43;17.20;99.90
58339;DHT22;68636;52.704;6.536;2023-09-19T18:19:09;17.20;99.90
58339;DHT22;68636;52.704;6.536;2023-09-19T18:21:35;17.30;99.90
58339;DHT22;68636;52.704;6.536;2023-09-19T18:24:02;17.10;99.90
58339;DHT22;68636;52.704;6.536;2023-09-19T18:26:35;17.10;99.90
58339;DHT22;68636;52.704;6.536;2023-09-19T18:29:04;16.90;99.90
58339;DHT22;68636;52.704;6.536;2023-09-19T18:31:31;16.90;99.90
58339;DHT22;68636;52.704;6.536;2023-09-19T18:33:59;16.90;99.90
58339;DHT22;68636;52.704;6.536;2023-09-19T18:36:26;16.80;99.90
58339;DHT22;68636;52.704;6.536;2023-09-19T18:38:56;16.90;99.90
58339;DHT22;68636;52.704;6.536;2023-09-19T18:41:22;16.80;99.90
58339;DHT22;68636;52.704;6.536;2023-09-19T18:43:48;17.10;99.90
58339;DHT22;68636;52.704;6.536;2023-09-19T18:46:16;16.80;99.90
58339;DHT22;68636;52.704;6.536;2023-09-19T18:48:44;16.80;99.90
58339;DHT22;68636;52.704;6.536;2023-09-19T18:51:11;16.70;99.90
58339;DHT22;68636;52.704;6.536;2023-09-19T18:53:37;16.70;99.90
58339;DHT22;68636;52.704;6.536;2023-09-19T18:56:11;16.80;99.90
58339;DHT22;68636;52.704;6.536;2023-09-19T18:58:39;17.00;99.90
58339;DHT22;68636;52.704;6.536;2023-09-19T19:01:06;16.70;99.90
58339;DHT22;68636;52.704;6.536;2023-09-19T19:03:33;16.70;99.90
58339;DHT22;68636;52.704;6.536;2023-09-19T19:06:09;16.70;99.90
58339;DHT22;68636;52.704;6.536;2023-09-19T19:08:38;16.70;99.90
58339;DHT22;68636;52.704;6.536;2023-09-19T19:11:11;16.70;99.90
58339;DHT22;68636;52.704;6.536;2023-09-19T19:13:40;16.80;99.90
58339;DHT22;68636;52.704;6.536;2023-09-19T19:16:07;16.60;99.90
58339;DHT22;68636;52.704;6.536;2023-09-19T19:18:40;16.50;99.90
58339;DHT22;68636;52.704;6.536;2023-09-19T19:21:07;16.80;99.90
58339;DHT22;68636;52.704;6.536;2023-09-19T19:23:37;16.50;99.90
58339;DHT22;68636;52.704;6.536;2023-09-19T19:26:03;16.80;99.90
58339;DHT22;68636;52.704;6.536;2023-09-19T19:28:31;16.40;99.90
58339;DHT22;68636;52.704;6.536;2023-09-19T19:30:57;16.40;99.90
58339;DHT22;68636;52.704;6.536;2023-09-19T19:33:22;16.50;99.90
58339;DHT22;68636;52.704;6.536;2023-09-19T19:35:50;16.40;99.90
58339;DHT22;68636;52.704;6.536;2023-09-19T19:38:15;16.70;99.90
58339;DHT22;68636;52.704;6.536;2023-09-19T19:40:42;16.50;99.90
58339;DHT22;68636;52.704;6.536;2023-09-19T19:43:09;16.40;99.90
58339;DHT22;68636;52.704;6.536;2023-09-19T19:45:35;16.70;99.90
58339;DHT22;68636;52.704;6.536;2023-09-19T19:48:00;16.50;99.90
58339;DHT22;68636;52.704;6.536;2023-09-19T19:50:29;16.60;99.90
58339;DHT22;68636;52.704;6.536;2023-09-19T19:52:54;16.60;99.90
58339;DHT22;68636;52.704;6.536;2023-09-19T19:55:25;16.80;99.90
58339;DHT22;68636;52.704;6.536;2023-09-19T19:57:54;16.50;99.90
58339;DHT22;68636;52.704;6.536;2023-09-19T20:00:20;16.60;99.90
58339;DHT22;68636;52.704;6.536;2023-09-19T20:02:48;16.50;99.90
58339;DHT22;68636;52.704;6.536;2023-09-19T20:05:18;16.60;99.90
58339;DHT22;68636;52.704;6.536;2023-09-19T20:07:44;16.60;99.90
58339;DHT22;68636;52.704;6.536;2023-09-19T20:10:13;16.40;99.90
58339;DHT22;68636;52.704;6.536;2023-09-19T20:12:41;16.40;99.90
58339;DHT22;68636;52.704;6.536;2023-09-19T20:15:08;16.40;99.90
58339;DHT22;68636;52.704;6.536;2023-09-19T20:17:37;16.60;99.90
58339;DHT22;68636;52.704;6.536;2023-09-19T20:20:06;16.60;99.90
58339;DHT22;68636;52.704;6.536;2023-09-19T20:22:41;16.50;99.90
58339;DHT22;68636;52.704;6.536;2023-09-19T20:25:07;16.70;99.90
58339;DHT22;68636;52.704;6.536;2023-09-19T20:27:33;16.80;99.90
58339;DHT22;68636;52.704;6.536;2023-09-19T20:29:59;16.70;99.90
58339;DHT22;68636;52.704;6.536;2023-09-19T20:32:26;16.90;99.90
58339;DHT22;68636;52.704;6.536;2023-09-19T20:34:51;16.70;99.90
58339;DHT22;68636;52.704;6.536;2023-09-19T20:37:17;16.50;99.90
58339;DHT22;68636;52.704;6.536;2023-09-19T20:39:43;16.90;99.90
58339;DHT22;68636;52.704;6.536;2023-09-19T20:42:09;16.90;99.90
58339;DHT22;68636;52.704;6.536;2023-09-19T20:44:35;16.60;99.90
58339;DHT22;68636;52.704;6.536;2023-09-19T20:47:01;16.80;99.90
58339;DHT22;68636;52.704;6.536;2023-09-19T20:49:28;16.70;99.90
58339;DHT22;68636;52.704;6.536;2023-09-19T20:51:54;17.10;99.90
58339;DHT22;68636;52.704;6.536;2023-09-19T20:54:19;16.80;99.90
58339;DHT22;68636;52.704;6.536;2023-09-19T20:56:46;16.90;99.90
58339;DHT22;68636;52.704;6.536;2023-09-19T20:59:12;17.20;99.90
58339;DHT22;68636;52.704;6.536;2023-09-19T21:01:38;16.90;99.90
58339;DHT22;68636;52.704;6.536;2023-09-19T21:04:04;17.20;99.90
58339;DHT22;68636;52.704;6.536;2023-09-19T21:06:29;17.00;99.90
58339;DHT22;68636;52.704;6.536;2023-09-19T21:08:55;16.90;99.90
58339;DHT22;68636;52.704;6.536;2023-09-19T21:11:21;16.80;99.90
58339;DHT22;68636;52.704;6.536;2023-09-19T21:13:48;16.80;99.90
58339;DHT22;68636;52.704;6.536;2023-09-19T21:16:15;16.80;99.90
58339;DHT22;68636;52.704;6.536;2023-09-19T21:18:42;17.10;99.90
58339;DHT22;68636;52.704;6.536;2023-09-19T21:21:08;17.00;99.90
58339;DHT22;68636;52.704;6.536;2023-09-19T21:23:36;16.70;99.90
58339;DHT22;68636;52.704;6.536;2023-09-19T21:26:02;16.90;99.90
58339;DHT22;68636;52.704;6.536;2023-09-19T21:28:29;17.00;99.90
58339;DHT22;68636;52.704;6.536;2023-09-19T21:31:02;17.10;99.90
58339;DHT22;68636;52.704;6.536;2023-09-19T21:33:35;17.10;99.90
58339;DHT22;68636;52.704;6.536;2023-09-19T21:36:05;17.00;99.90
58339;DHT22;68636;52.704;6.536;2023-09-19T21:38:38;17.20;99.90
58339;DHT22;68636;52.704;6.536;2023-09-19T21:41:11;17.40;99.90
58339;DHT22;68636;52.704;6.536;2023-09-19T21:43:39;17.00;99.90
58339;DHT22;68636;52.704;6.536;2023-09-19T21:46:06;17.20;99.90
58339;DHT22;68636;52.704;6.536;2023-09-19T21:48:32;17.10;99.90
58339;DHT22;68636;52.704;6.536;2023-09-19T21:50:58;17.20;99.90
58339;DHT22;68636;52.704;6.536;2023-09-19T21:53:25;17.30;99.90
58339;DHT22;68636;52.704;6.536;2023-09-19T21:55:54;17.20;99.90
58339;DHT22;68636;52.704;6.536;2023-09-19T21:58:23;17.10;99.90
58339;DHT22;68636;52.704;6.536;2023-09-19T22:00:51;17.40;99.90
58339;DHT22;68636;52.704;6.536;2023-09-19T22:03:18;17.00;99.90
58339;DHT22;68636;52.704;6.536;2023-09-19T22:05:44;17.00;99.90
58339;DHT22;68636;52.704;6.536;2023-09-19T22:08:10;17.00;99.90
58339;DHT22;68636;52.704;6.536;2023-09-19T22:10:47;17.20;99.90
58339;DHT22;68636;52.704;6.536;2023-09-19T22:13:17;16.90;99.90
58339;DHT22;68636;52.704;6.536;2023-09-19T22:15:48;17.20;99.90
58339;DHT22;68636;52.704;6.536;2023-09-19T22:18:17;17.20;99.90
58339;DHT22;68636;52.704;6.536;2023-09-19T22:20:49;17.10;99.90
58339;DHT22;68636;52.704;6.536;2023-09-19T22:23:17;17.00;99.90
58339;DHT22;68636;52.704;6.536;2023-09-19T22:25:42;16.90;99.90
58339;DHT22;68636;52.704;6.536;2023-09-19T22:28:14;17.10;99.90
58339;DHT22;68636;52.704;6.536;2023-09-19T22:30:41;16.70;99.90
58339;DHT22;68636;52.704;6.536;2023-09-19T22:33:14;16.90;99.90
58339;DHT22;68636;52.704;6.536;2023-09-19T22:35:46;17.10;99.90
58339;DHT22;68636;52.704;6.536;2023-09-19T22:38:16;17.10;99.90
58339;DHT22;68636;52.704;6.536;2023-09-19T22:40:44;17.20;99.90
58339;DHT22;68636;52.704;6.536;2023-09-19T22:43:25;16.90;99.90
58339;DHT22;68636;52.704;6.536;2023-09-19T22:45:58;17.20;99.90
58339;DHT22;68636;52.704;6.536;2023-09-19T22:48:24;16.80;99.90
58339;DHT22;68636;52.704;6.536;2023-09-19T22:50:55;16.80;99.90
58339;DHT22;68636;52.704;6.536;2023-09-19T22:53:28;17.00;99.90
58339;DHT22;68636;52.704;6.536;2023-09-19T22:55:54;17.10;99.90
58339;DHT22;68636;52.704;6.536;2023-09-19T22:58:20;17.10;99.90
58339;DHT22;68636;52.704;6.536;2023-09-19T23:00:46;17.20;99.90
58339;DHT22;68636;52.704;6.536;2023-09-19T23:03:15;16.90;99.90
58339;DHT22;68636;52.704;6.536;2023-09-19T23:05:41;17.00;99.90
58339;DHT22;68636;52.704;6.536;2023-09-19T23:08:13;17.10;99.90
58339;DHT22;68636;52.704;6.536;2023-09-19T23:10:45;17.10;99.90
58339;DHT22;68636;52.704;6.536;2023-09-19T23:13:16;17.00;99.90
58339;DHT22;68636;52.704;6.536;2023-09-19T23:15:52;17.00;99.90
58339;DHT22;68636;52.704;6.536;2023-09-19T23:18:23;17.10;99.90
58339;DHT22;68636;52.704;6.536;2023-09-19T23:20:52;17.20;99.90
58339;DHT22;68636;52.704;6.536;2023-09-19T23:23:30;17.10;99.90
58339;DHT22;68636;52.704;6.536;2023-09-19T23:25:59;17.20;99.90
58339;DHT22;68636;52.704;6.536;2023-09-19T23:28:25;17.20;99.90
58339;DHT22;68636;52.704;6.536;2023-09-19T23:30:51;17.50;99.90
58339;DHT22;68636;52.704;6.536;2023-09-19T23:33:19;17.20;99.90
58339;DHT22;68636;52.704;6.536;2023-09-19T23:35:47;17.40;99.90
58339;DHT22;68636;52.704;6.536;2023-09-19T23:38:13;17.30;99.90
58339;DHT22;68636;52.704;6.536;2023-09-19T23:40:39;17.50;99.90
58339;DHT22;68636;52.704;6.536;2023-09-19T23:43:05;17.30;99.90
58339;DHT22;68636;52.704;6.536;2023-09-19T23:45:39;17.50;99.90
58339;DHT22;68636;52.704;6.536;2023-09-19T23:48:08;17.20;99.90
58339;DHT22;68636;52.704;6.536;2023-09-19T23:50:34;17.20;99.90
58339;DHT22;68636;52.704;6.536;2023-09-19T23:53:07;17.50;99.90
58339;DHT22;68636;52.704;6.536;2023-09-19T23:55:34;17.20;99.90
58339;DHT22;68636;52.704;6.536;2023-09-19T23:58:00;17.50;99.90
